createdAt,value
2019-05-22T19:10:20.514Z,6.33
2019-05-22T19:12:24.711Z,5.37
2019-05-22T19:14:28.705Z,4.70
2019-05-22T19:16:32.922Z,5.10
2019-05-22T19:18:36.870Z,4.90
2019-05-22T19:20:43.806Z,4.37
2019-05-22T19:22:59.529Z,6.03
2019-05-22T19:24:53.160Z,5.97
2019-05-22T19:26:56.877Z,5.03
2019-05-22T19:29:01.189Z,5.42
2019-05-22T19:31:05.224Z,5.62
2019-05-22T19:33:09.103Z,6.25
2019-05-22T19:35:14.014Z,6.47
2019-05-22T19:37:17.958Z,4.97
2019-05-22T19:39:21.782Z,6.53
2019-05-22T19:41:25.693Z,6.50
2019-05-22T19:43:29.521Z,7.10
2019-05-22T19:45:33.582Z,6.75
2019-05-22T19:47:38.074Z,7.25
2019-05-22T19:49:43.832Z,7.50
2019-05-22T19:51:50.214Z,7.12
2019-05-22T19:53:54.607Z,6.40
2019-05-22T19:56:01.546Z,7.50
2019-05-22T19:58:05.643Z,6.75
2019-05-22T20:00:11.403Z,6.60
2019-05-22T20:02:15.218Z,7.12
2019-05-22T20:04:19.509Z,8.08
2019-05-22T20:06:23.811Z,6.30
2019-05-22T20:08:27.940Z,5.55
2019-05-22T20:10:32.218Z,6.03
2019-05-22T20:12:36.604Z,6.50
2019-05-22T20:14:41.655Z,7.03
2019-05-22T20:16:45.575Z,6.37
2019-05-22T20:18:49.467Z,5.78
2019-05-22T20:20:53.567Z,6.05
2019-05-22T20:22:57.319Z,6.55
2019-05-22T20:25:01.255Z,7.03
2019-05-22T20:27:09.339Z,5.95
2019-05-22T20:29:13.288Z,6.33
2019-05-22T20:31:17.626Z,6.30
2019-05-22T20:33:21.479Z,6.60
2019-05-22T20:35:26.573Z,5.78
2019-05-22T20:37:32.490Z,6.55
2019-05-22T20:39:37.291Z,5.83
2019-05-22T20:41:41.340Z,6.42
2019-05-22T20:43:46.518Z,7.35
2019-05-22T20:45:51.398Z,6.85
2019-05-22T20:48:11.926Z,6.20
2019-05-22T20:50:17.197Z,7.28
2019-05-22T20:52:21.349Z,6.67
2019-05-22T20:54:26.840Z,6.35
2019-05-22T20:56:31.874Z,6.53
2019-05-22T20:58:36.561Z,7.87
2019-05-22T21:00:41.792Z,7.25
2019-05-22T21:03:12.463Z,5.90
2019-05-22T21:05:20.287Z,7.10
2019-05-22T21:07:33.310Z,5.85
2019-05-22T21:09:37.377Z,7.60
2019-05-22T21:11:41.909Z,8.05
2019-05-22T21:13:45.947Z,6.60
2019-05-22T21:15:51.384Z,6.30
2019-05-22T21:17:56.215Z,6.75
2019-05-22T21:20:02.090Z,6.85
2019-05-22T21:22:06.656Z,5.92
2019-05-22T21:24:12.370Z,5.87
2019-05-22T21:26:18.355Z,4.95
2019-05-22T21:28:22.630Z,5.35
2019-05-22T21:30:26.735Z,6.15
2019-05-22T21:32:30.990Z,5.37
2019-05-22T21:34:34.738Z,5.25
2019-05-22T21:36:38.893Z,5.75
2019-05-22T21:38:42.805Z,5.33
2019-05-22T21:40:47.690Z,5.90
2019-05-22T21:42:53.521Z,5.60
2019-05-22T21:44:57.378Z,5.03
2019-05-22T21:47:04.677Z,4.40
2019-05-22T21:49:09.570Z,4.97
2019-05-22T21:51:13.287Z,4.80
2019-05-22T21:53:18.194Z,5.60
2019-05-22T21:55:24.210Z,5.20
2019-05-22T21:57:28.290Z,5.58
2019-05-22T21:59:32.790Z,5.42
2019-05-22T22:01:38.354Z,5.78
2019-05-22T22:03:50.198Z,5.97
2019-05-22T22:05:55.067Z,5.40
2019-05-22T22:07:59.990Z,4.95
2019-05-22T22:10:05.875Z,4.92
2019-05-22T22:12:11.481Z,4.35
2019-05-22T22:14:17.752Z,4.97
2019-05-22T22:16:22.834Z,4.30
2019-05-22T22:18:26.761Z,5.00
2019-05-22T22:20:30.736Z,4.92
2019-05-22T22:22:35.547Z,4.60
2019-05-22T22:24:39.978Z,5.22
2019-05-22T22:26:43.862Z,4.92
2019-05-22T22:28:48.449Z,5.17
2019-05-22T22:30:53.848Z,5.83
2019-05-22T22:33:01.577Z,5.40
2019-05-22T22:35:08.948Z,5.53
2019-05-22T22:37:14.443Z,4.80
2019-05-22T22:39:20.119Z,4.67
2019-05-22T22:41:24.160Z,5.28
2019-05-22T22:43:32.911Z,5.35
2019-05-22T22:45:43.165Z,4.60
2019-05-22T22:47:48.401Z,4.92
2019-05-22T22:49:52.922Z,4.62
2019-05-22T22:51:57.507Z,6.15
2019-05-22T22:54:03.025Z,6.90
2019-05-22T22:56:08.400Z,6.03
2019-05-22T22:58:17.020Z,6.85
2019-05-22T23:00:25.278Z,7.03
2019-05-22T23:02:30.653Z,6.25
2019-05-22T23:04:35.245Z,5.78
2019-05-22T23:06:39.927Z,5.62
2019-05-22T23:08:45.027Z,6.30
2019-05-22T23:10:50.231Z,5.90
2019-05-22T23:12:55.006Z,4.70
2019-05-22T23:15:00.391Z,5.58
2019-05-22T23:17:05.679Z,5.45
2019-05-22T23:19:17.123Z,5.33
2019-05-22T23:21:20.774Z,5.42
2019-05-22T23:23:23.302Z,5.70
2019-05-22T23:25:27.012Z,4.83
2019-05-22T23:27:31.510Z,4.83
2019-05-22T23:29:37.108Z,4.80
2019-05-22T23:31:41.298Z,4.55
2019-05-22T23:33:45.166Z,4.47
2019-05-22T23:35:50.152Z,4.40
2019-05-22T23:37:54.232Z,4.78
2019-05-22T23:39:58.034Z,4.55
2019-05-22T23:42:04.901Z,4.35
2019-05-22T23:44:11.662Z,4.72
2019-05-22T23:46:17.152Z,4.62
2019-05-22T23:48:23.024Z,4.12
2019-05-22T23:50:27.357Z,4.45
2019-05-22T23:52:31.156Z,4.17
2019-05-22T23:54:36.229Z,4.60
2019-05-22T23:56:39.951Z,4.78
2019-05-22T23:58:52.719Z,4.50
